createdAt,value
2017-04-05T00:00:06.375Z,56.8
2017-04-05T00:10:06.369Z,56.8
2017-04-05T00:20:06.411Z,56.8
2017-04-05T00:30:06.369Z,55.7
2017-04-05T00:40:06.397Z,56.8
2017-04-05T00:50:06.394Z,56.8
2017-04-05T01:00:06.339Z,57.3
2017-04-05T01:10:06.368Z,56.2
2017-04-05T01:20:06.368Z,56.2
2017-04-05T01:30:06.374Z,56.2
2017-04-05T01:40:06.372Z,55.7
2017-04-05T01:50:06.367Z,55.7
2017-04-05T02:00:06.371Z,55.7
2017-04-05T02:10:06.429Z,56.2
2017-04-05T02:20:06.364Z,56.2
2017-04-05T02:30:06.365Z,55.7
2017-04-05T02:40:06.371Z,55.7
2017-04-05T02:50:06.369Z,55.7
2017-04-05T03:00:05.962Z,55.7
2017-04-05T03:10:06.366Z,55.7
2017-04-05T03:20:06.368Z,55.7
2017-04-05T03:30:06.385Z,55.1
2017-04-05T03:40:06.343Z,55.7
2017-04-05T03:50:06.371Z,55.1
2017-04-05T04:00:06.403Z,55.1
2017-04-05T04:10:06.378Z,55.1
2017-04-05T04:20:06.369Z,55.1
2017-04-05T04:30:06.369Z,55.1
2017-04-05T04:40:06.400Z,54.6
2017-04-05T04:50:06.408Z,54.6
2017-04-05T05:00:06.400Z,55.1
2017-04-05T05:10:06.371Z,55.1
2017-04-05T05:20:06.369Z,54.6
2017-04-05T05:30:06.368Z,54.1
2017-04-05T05:40:05.943Z,55.1
2017-04-05T05:50:06.400Z,55.1
2017-04-05T06:00:06.406Z,55.1
2017-04-05T06:10:06.368Z,54.6
2017-04-05T06:20:06.348Z,55.1
2017-04-05T06:30:06.368Z,55.1
2017-04-05T06:40:06.377Z,55.1
2017-04-05T06:50:06.374Z,54.6
2017-04-05T07:00:06.409Z,55.1
2017-04-05T07:10:06.375Z,54.6
2017-04-05T07:20:06.371Z,55.1
2017-04-05T07:30:06.371Z,54.6
2017-04-05T07:40:06.371Z,55.1
2017-04-05T07:50:06.353Z,55.1
2017-04-05T08:00:06.374Z,55.1
2017-04-05T08:10:06.395Z,54.1
2017-04-05T08:20:03.360Z,55.1
2017-04-05T08:30:06.399Z,55.1
2017-04-05T08:40:06.398Z,55.7
2017-04-05T08:50:06.365Z,55.1
2017-04-05T09:00:06.379Z,55.1
2017-04-05T09:10:06.364Z,55.7
2017-04-05T09:20:06.365Z,55.1
2017-04-05T09:30:06.390Z,55.7
2017-04-05T09:40:06.361Z,55.1
2017-04-05T09:50:06.367Z,55.7
2017-04-05T10:00:06.369Z,55.7
2017-04-05T10:10:06.389Z,56.2
2017-04-05T10:20:06.355Z,55.7
2017-04-05T10:30:06.356Z,56.2
2017-04-05T10:40:06.354Z,56.2
2017-04-05T10:50:06.355Z,56.8
2017-04-05T11:00:06.355Z,56.2
2017-04-05T11:10:06.354Z,57.3
2017-04-05T11:20:06.436Z,57.3
2017-04-05T11:30:06.358Z,56.8
2017-04-05T11:40:06.358Z,56.8
2017-04-05T11:50:06.390Z,57.3
2017-04-05T12:00:06.393Z,57.3
2017-04-05T12:10:06.364Z,57.3
2017-04-05T12:20:06.365Z,56.8
2017-04-05T12:30:06.380Z,57.8
2017-04-05T12:40:06.373Z,57.3
2017-04-05T12:50:06.370Z,57.3
2017-04-05T13:00:06.370Z,57.3
2017-04-05T13:10:06.370Z,57.3
2017-04-05T13:20:06.374Z,57.3
2017-04-05T13:30:06.344Z,57.3
2017-04-05T13:40:06.415Z,57.3
2017-04-05T13:50:06.375Z,57.3
2017-04-05T14:00:06.407Z,57.3
2017-04-05T14:10:06.351Z,57.8
2017-04-05T14:20:06.387Z,57.8
2017-04-05T14:30:06.386Z,57.3
2017-04-05T14:40:06.378Z,57.3
2017-04-05T14:50:06.376Z,57.8
2017-04-05T15:00:06.372Z,57.3
2017-04-05T15:10:06.370Z,57.3
2017-04-05T15:20:06.371Z,57.3
2017-04-05T15:30:06.398Z,56.8
2017-04-05T15:40:06.405Z,57.3
2017-04-05T15:50:06.399Z,57.3
2017-04-05T16:00:06.372Z,56.8
2017-04-05T16:10:06.361Z,57.3
2017-04-05T16:20:06.377Z,56.2
2017-04-05T16:30:06.364Z,56.2
2017-04-05T16:40:06.402Z,56.2
2017-04-05T16:50:06.396Z,57.3
2017-04-05T17:00:06.392Z,57.3
2017-04-05T17:10:06.396Z,56.8
2017-04-05T17:20:06.367Z,57.3
2017-04-05T17:30:06.360Z,56.8
2017-04-05T17:40:06.364Z,56.8
2017-04-05T17:50:06.396Z,57.3
2017-04-05T18:00:06.396Z,56.8
2017-04-05T18:10:06.398Z,56.8
2017-04-05T18:20:06.376Z,56.8
2017-04-05T18:30:06.366Z,57.3
2017-04-05T18:40:06.367Z,56.8
2017-04-05T18:50:06.381Z,56.8
2017-04-05T19:00:06.370Z,56.2
2017-04-05T19:10:06.408Z,56.2
2017-04-05T19:20:06.497Z,56.2
2017-04-05T19:30:06.405Z,56.2
2017-04-05T19:40:06.371Z,56.2
2017-04-05T19:50:06.370Z,56.2
2017-04-05T20:00:01.370Z,56.2
2017-04-05T20:10:06.405Z,56.2
2017-04-05T20:20:00.856Z,56.2
2017-04-05T20:30:26.403Z,56.2
2017-04-05T20:40:06.399Z,56.2
2017-04-05T20:50:06.368Z,55.7
2017-04-05T21:00:06.393Z,55.7
2017-04-05T21:10:06.367Z,55.1
2017-04-05T21:20:06.376Z,55.1
2017-04-05T21:30:06.373Z,55.7
2017-04-05T21:40:06.369Z,55.1
2017-04-05T21:50:06.399Z,55.1
2017-04-05T22:00:06.370Z,55.7
2017-04-05T22:10:06.364Z,55.1
2017-04-05T22:20:06.362Z,55.1
2017-04-05T22:30:06.372Z,55.1
2017-04-05T22:40:01.871Z,55.1
2017-04-05T22:50:06.433Z,55.1
2017-04-05T23:00:06.369Z,55.1
2017-04-05T23:10:06.426Z,55.1
2017-04-05T23:20:06.364Z,55.1
2017-04-05T23:30:06.376Z,54.6
2017-04-05T23:40:06.365Z,54.6
2017-04-05T23:50:06.362Z,55.1
